Time;durP1;ratioP1;P1;durP2;ratioP2;P2;SDS_P1;SDS_P2;PMS_P1;PMS_P2;Temp;Humidity;BMP_temperature;BMP_pressure;BME280_temperature;BME280_humidity;BME280_pressure;Samples;Min_cycle;Max_cycle;Signal;HPM_P1;HPM_P2
2023/12/14 00:00:55;;;;;;;4.30;3.43;;;6.40;99.90;;;;;;5075559;28;20473;-83
2023/12/14 00:03:22;;;;;;;4.67;3.40;;;6.30;99.90;;;;;;5079086;28;20576;-83
2023/12/14 00:05:49;;;;;;;6.13;5.30;;;6.30;99.90;;;;;;5063888;28;21001;-84
2023/12/14 00:08:17;;;;;;;3.73;3.43;;;6.30;99.90;;;;;;5076961;28;20959;-84
2023/12/14 00:10:44;;;;;;;5.13;3.83;;;6.30;99.90;;;;;;5064643;28;20819;-84
2023/12/14 00:13:11;;;;;;;3.47;3.00;;;6.30;99.90;;;;;;5071826;28;20472;-84
2023/12/14 00:15:38;;;;;;;2.60;2.40;;;6.20;99.90;;;;;;5065973;28;20457;-84
2023/12/14 00:18:06;;;;;;;3.40;3.10;;;6.20;99.90;;;;;;5069162;28;20541;-84
2023/12/14 00:20:33;;;;;;;3.03;2.73;;;6.20;99.90;;;;;;5068238;28;20506;-84
2023/12/14 00:23:00;;;;;;;2.43;2.23;;;6.20;99.90;;;;;;5072538;28;20509;-84
2023/12/14 00:25:28;;;;;;;10.57;3.20;;;6.20;99.90;;;;;;5068912;28;20479;-85
2023/12/14 00:27:55;;;;;;;4.77;2.73;;;6.20;99.90;;;;;;5070610;28;20463;-85
2023/12/14 00:30:22;;;;;;;3.03;2.73;;;6.20;99.90;;;;;;5076110;28;20561;-85
2023/12/14 00:32:49;;;;;;;2.10;1.80;;;6.10;99.90;;;;;;5066399;28;20885;-85
2023/12/14 00:35:16;;;;;;;1.87;1.53;;;6.20;99.90;;;;;;5080791;28;20463;-85
2023/12/14 00:37:43;;;;;;;1.67;1.57;;;6.20;99.90;;;;;;5065416;28;20471;-84
2023/12/14 00:40:11;;;;;;;1.73;1.63;;;6.20;99.90;;;;;;5073718;28;20468;-84
2023/12/14 00:42:40;;;;;;;3.10;2.57;;;6.10;99.90;;;;;;5071515;28;20448;-85
2023/12/14 00:45:08;;;;;;;3.20;2.83;;;6.10;99.90;;;;;;5067383;28;20959;-84
2023/12/14 00:47:35;;;;;;;2.60;2.40;;;6.10;99.90;;;;;;5065803;28;20633;-84
2023/12/14 00:50:02;;;;;;;3.10;2.87;;;6.10;99.90;;;;;;5074911;28;20549;-84
2023/12/14 00:52:29;;;;;;;3.33;2.47;;;6.10;99.90;;;;;;5078289;28;20903;-84
2023/12/14 00:54:57;;;;;;;3.40;2.50;;;6.10;99.90;;;;;;5080635;28;20518;-84
2023/12/14 00:57:24;;;;;;;2.77;2.57;;;6.00;99.90;;;;;;5073783;28;20880;-84
2023/12/14 00:59:52;;;;;;;3.23;2.93;;;6.10;99.90;;;;;;5071709;28;20521;-84
2023/12/14 01:02:19;;;;;;;3.50;3.00;;;6.10;99.90;;;;;;5082752;28;20466;-84
2023/12/14 01:04:46;;;;;;;2.97;2.60;;;6.00;99.90;;;;;;5067630;28;20451;-84
2023/12/14 01:07:13;;;;;;;2.97;2.77;;;6.10;99.90;;;;;;5075035;28;20535;-84
2023/12/14 01:09:40;;;;;;;3.60;3.30;;;6.10;99.90;;;;;;5079738;28;20474;-84
2023/12/14 01:12:07;;;;;;;3.93;3.30;;;6.10;99.90;;;;;;5081704;28;20454;-84
2023/12/14 01:14:34;;;;;;;5.20;4.70;;;6.00;99.90;;;;;;5075036;28;20458;-84
2023/12/14 01:17:03;;;;;;;3.40;2.87;;;6.00;99.90;;;;;;5072256;28;20491;-84
2023/12/14 01:19:30;;;;;;;4.10;2.80;;;6.00;99.90;;;;;;5073534;28;20461;-84
2023/12/14 01:21:57;;;;;;;3.73;2.47;;;6.00;99.90;;;;;;5079090;28;20436;-84
2023/12/14 01:24:24;;;;;;;4.10;2.60;;;6.00;99.90;;;;;;5068738;28;20460;-84
2023/12/14 01:26:51;;;;;;;1.73;1.63;;;6.00;99.90;;;;;;5069094;28;20451;-84
2023/12/14 01:29:18;;;;;;;3.10;1.90;;;5.90;99.90;;;;;;5067042;28;20505;-84
2023/12/14 01:31:45;;;;;;;2.57;2.37;;;5.90;99.90;;;;;;5084071;28;20479;-84
2023/12/14 01:34:14;;;;;;;2.60;1.90;;;5.90;99.90;;;;;;5081097;28;20617;-84
2023/12/14 01:36:41;;;;;;;2.37;2.17;;;5.90;99.90;;;;;;5071649;28;20535;-84
2023/12/14 01:39:08;;;;;;;3.03;2.70;;;5.90;99.90;;;;;;5071720;28;20529;-84
2023/12/14 01:41:35;;;;;;;4.50;3.27;;;5.90;99.90;;;;;;5068782;28;20519;-84
2023/12/14 01:44:02;;;;;;;2.53;2.33;;;5.80;99.90;;;;;;5076374;28;20459;-84
2023/12/14 01:46:29;;;;;;;2.80;1.97;;;5.80;99.90;;;;;;5079998;28;20513;-83
2023/12/14 01:48:56;;;;;;;5.00;1.57;;;5.80;99.90;;;;;;5083786;28;20504;-83
2023/12/14 01:51:24;;;;;;;1.37;1.27;;;5.80;99.90;;;;;;5077647;28;20495;-83
2023/12/14 01:53:51;;;;;;;1.37;1.03;;;5.80;99.90;;;;;;5067707;28;20672;-84
2023/12/14 01:56:18;;;;;;;3.07;1.90;;;5.70;99.90;;;;;;5074037;28;20543;-83
2023/12/14 01:58:45;;;;;;;1.50;1.33;;;5.70;99.90;;;;;;5074906;28;20500;-84
2023/12/14 02:01:19;;;;;;;2.63;2.53;;;5.70;99.90;;;;;;5084493;28;20443;-84
2023/12/14 02:03:46;;;;;;;2.40;1.60;;;5.70;99.90;;;;;;5076005;28;20532;-84
2023/12/14 02:06:13;;;;;;;1.70;1.43;;;5.70;99.90;;;;;;5070097;28;20447;-83
2023/12/14 02:08:42;;;;;;;1.63;1.50;;;5.70;99.90;;;;;;5083656;28;20500;-84
2023/12/14 02:11:09;;;;;;;1.80;1.30;;;5.70;99.90;;;;;;5086742;28;20491;-84
2023/12/14 02:13:36;;;;;;;3.27;1.80;;;5.70;99.90;;;;;;5081781;28;21183;-83
2023/12/14 02:16:03;;;;;;;1.17;0.80;;;5.70;99.90;;;;;;5074838;28;20951;-83
2023/12/14 02:18:30;;;;;;;2.10;1.70;;;5.70;99.90;;;;;;5081081;28;20505;-84
2023/12/14 02:20:57;;;;;;;3.37;0.80;;;5.70;99.90;;;;;;5066521;28;20501;-84
2023/12/14 02:23:25;;;;;;;1.00;0.80;;;5.70;99.90;;;;;;5077673;28;20505;-83
2023/12/14 02:25:52;;;;;;;1.80;0.80;;;5.70;99.90;;;;;;5073664;28;20446;-83
2023/12/14 02:28:19;;;;;;;1.00;0.80;;;5.70;99.90;;;;;;5075522;28;20480;-83
2023/12/14 02:30:46;;;;;;;1.23;0.80;;;5.70;99.90;;;;;;5079915;28;20970;-83
2023/12/14 02:33:13;;;;;;;1.13;1.03;;;5.70;99.90;;;;;;5071120;28;20447;-83
2023/12/14 02:35:40;;;;;;;2.70;1.53;;;5.70;99.90;;;;;;5073553;28;20517;-83
2023/12/14 02:38:07;;;;;;;1.00;0.70;;;5.70;99.90;;;;;;5071080;28;20814;-84
2023/12/14 02:40:35;;;;;;;1.30;1.17;;;5.70;99.90;;;;;;5071714;28;20505;-83
2023/12/14 02:43:02;;;;;;;1.37;1.27;;;5.70;99.90;;;;;;5077750;28;20529;-83
2023/12/14 02:45:29;;;;;;;1.40;0.90;;;5.70;99.90;;;;;;5077904;28;20462;-83
2023/12/14 02:47:56;;;;;;;2.10;2.00;;;5.70;99.90;;;;;;5069693;28;20437;-83
2023/12/14 02:50:23;;;;;;;1.40;1.10;;;5.70;99.90;;;;;;5075037;28;20454;-83
2023/12/14 02:52:50;;;;;;;0.70;0.70;;;5.80;99.90;;;;;;5057352;28;20484;-84
2023/12/14 02:55:17;;;;;;;1.57;1.47;;;5.70;99.90;;;;;;5063944;28;20545;-83
2023/12/14 02:57:45;;;;;;;1.70;1.60;;;5.70;99.90;;;;;;5068975;28;20492;-84
2023/12/14 03:00:14;;;;;;;1.03;0.90;;;5.70;99.90;;;;;;5074134;28;20463;-84
2023/12/14 03:02:41;;;;;;;1.93;1.10;;;5.70;99.90;;;;;;5069100;28;20463;-84
2023/12/14 03:05:08;;;;;;;2.87;1.50;;;5.70;99.90;;;;;;5077812;28;20448;-84
2023/12/14 03:07:35;;;;;;;1.40;1.30;;;5.70;99.90;;;;;;5066799;28;20842;-83
2023/12/14 03:10:04;;;;;;;1.73;1.37;;;5.70;99.90;;;;;;5070641;28;20447;-83
2023/12/14 03:12:30;;;;;;;2.53;2.33;;;5.70;99.90;;;;;;5079055;28;20483;-83
2023/12/14 03:14:59;;;;;;;1.63;1.53;;;5.70;99.90;;;;;;5075886;28;20453;-84
2023/12/14 03:17:26;;;;;;;2.93;1.60;;;5.70;99.90;;;;;;5078897;28;20980;-84
2023/12/14 03:19:53;;;;;;;4.20;1.70;;;5.70;99.90;;;;;;5077088;28;20500;-84
2023/12/14 03:22:20;;;;;;;2.93;1.53;;;5.70;99.90;;;;;;5078151;28;20976;-82
2023/12/14 03:24:47;;;;;;;2.83;1.73;;;5.70;99.90;;;;;;5078426;28;20533;-83
2023/12/14 03:27:14;;;;;;;3.40;2.40;;;5.70;99.90;;;;;;5072896;28;20458;-83
2023/12/14 03:29:41;;;;;;;4.30;2.57;;;5.70;99.90;;;;;;5065534;28;20471;-83
2023/12/14 03:32:09;;;;;;;1.63;1.37;;;5.70;99.90;;;;;;5084293;28;21034;-83
2023/12/14 03:34:37;;;;;;;1.60;1.40;;;5.70;99.90;;;;;;5068765;28;20471;-83
2023/12/14 03:37:04;;;;;;;1.50;1.33;;;5.70;99.90;;;;;;5077909;28;20856;-82
2023/12/14 03:39:31;;;;;;;1.60;1.40;;;5.70;99.90;;;;;;5068177;28;20455;-82
2023/12/14 03:41:58;;;;;;;1.47;1.37;;;5.70;99.90;;;;;;5087611;28;20500;-83
2023/12/14 03:44:25;;;;;;;2.60;1.27;;;5.70;99.90;;;;;;5067199;28;20469;-82
2023/12/14 03:46:54;;;;;;;4.90;1.00;;;5.70;99.90;;;;;;5072352;28;20470;-84
2023/12/14 03:49:22;;;;;;;2.87;2.17;;;5.70;99.90;;;;;;5069376;28;20548;-84
2023/12/14 03:51:49;;;;;;;1.67;1.57;;;5.70;99.90;;;;;;5080659;28;20495;-83
2023/12/14 03:54:16;;;;;;;1.20;1.10;;;5.70;99.90;;;;;;5075097;28;20536;-84
2023/12/14 03:56:43;;;;;;;1.03;0.90;;;5.70;99.90;;;;;;5079272;28;21023;-84
2023/12/14 03:59:10;;;;;;;1.30;1.20;;;5.70;99.90;;;;;;5078942;28;20991;-84
2023/12/14 04:01:39;;;;;;;1.30;1.20;;;5.70;99.90;;;;;;5075967;28;20848;-83
2023/12/14 04:04:06;;;;;;;1.27;1.17;;;5.70;99.90;;;;;;5074705;28;20559;-84
2023/12/14 04:06:34;;;;;;;1.63;1.53;;;5.70;99.90;;;;;;5069365;28;20598;-85
2023/12/14 04:09:01;;;;;;;0.97;0.90;;;5.70;99.90;;;;;;5066577;28;20468;-85
2023/12/14 04:11:28;;;;;;;1.43;1.30;;;5.70;99.90;;;;;;5075833;28;20567;-84
2023/12/14 04:13:56;;;;;;;1.50;1.13;;;5.70;99.90;;;;;;5072700;28;20979;-84
2023/12/14 04:16:23;;;;;;;1.97;1.53;;;5.70;99.90;;;;;;5076751;28;20468;-85
2023/12/14 04:18:50;;;;;;;2.20;1.90;;;5.70;99.90;;;;;;5073836;28;20447;-85
2023/12/14 04:21:17;;;;;;;2.80;2.03;;;5.70;99.90;;;;;;5077947;28;20471;-85
2023/12/14 04:23:46;;;;;;;3.10;2.57;;;5.70;99.90;;;;;;5075729;28;20447;-85
2023/12/14 04:26:14;;;;;;;2.97;2.67;;;5.70;99.90;;;;;;5076422;28;20545;-84
2023/12/14 04:28:43;;;;;;;4.03;2.40;;;5.70;99.90;;;;;;5074623;28;20465;-82
2023/12/14 04:31:11;;;;;;;3.60;2.97;;;5.70;99.90;;;;;;5070927;28;21187;-81
2023/12/14 04:33:38;;;;;;;3.10;2.10;;;5.70;99.90;;;;;;5075502;28;20493;-82
2023/12/14 04:36:04;;;;;;;2.27;2.00;;;5.70;99.90;;;;;;5072884;28;20456;-84
2023/12/14 04:38:31;;;;;;;1.87;1.37;;;5.70;99.90;;;;;;5084669;28;20445;-84
2023/12/14 04:41:00;;;;;;;1.67;1.33;;;5.70;99.90;;;;;;5085254;28;20468;-83
2023/12/14 04:43:29;;;;;;;1.63;1.43;;;5.70;99.90;;;;;;5067670;28;20478;-83
2023/12/14 04:45:56;;;;;;;1.73;1.60;;;5.60;99.90;;;;;;5073985;28;20497;-83
2023/12/14 04:48:23;;;;;;;1.60;1.50;;;5.70;99.90;;;;;;5073483;28;20778;-82
2023/12/14 04:50:50;;;;;;;2.17;2.07;;;5.70;99.90;;;;;;5078767;28;20451;-83
2023/12/14 04:53:17;;;;;;;3.17;2.20;;;5.70;99.90;;;;;;5076808;28;20893;-83
2023/12/14 04:55:44;;;;;;;1.90;1.50;;;5.70;99.90;;;;;;5066731;28;20519;-83
2023/12/14 04:58:12;;;;;;;2.17;1.10;;;5.60;99.90;;;;;;5079766;28;20694;-83
2023/12/14 05:00:39;;;;;;;2.73;2.07;;;5.60;99.90;;;;;;5068167;28;20470;-84
2023/12/14 05:03:06;;;;;;;1.83;1.70;;;5.70;99.90;;;;;;5066189;28;20461;-83
2023/12/14 05:05:33;;;;;;;1.40;1.30;;;5.70;99.90;;;;;;5072950;28;20471;-83
2023/12/14 05:08:00;;;;;;;5.37;1.93;;;5.70;99.90;;;;;;5069528;28;20961;-83
2023/12/14 05:10:27;;;;;;;2.60;1.20;;;5.70;99.90;;;;;;5078282;28;20995;-83
2023/12/14 05:12:54;;;;;;;2.50;1.23;;;5.70;99.90;;;;;;5067455;28;20794;-83
2023/12/14 05:15:22;;;;;;;3.90;3.60;;;5.70;99.90;;;;;;5084686;28;20508;-84
2023/12/14 05:17:49;;;;;;;1.50;1.30;;;5.70;99.90;;;;;;5074379;28;20465;-83
2023/12/14 05:20:16;;;;;;;5.73;2.27;;;5.70;99.90;;;;;;5071398;28;20475;-83
2023/12/14 05:22:43;;;;;;;2.30;2.10;;;5.70;99.90;;;;;;5077748;28;20628;-83
2023/12/14 05:25:10;;;;;;;3.07;1.30;;;5.70;99.90;;;;;;5085058;28;20500;-83
2023/12/14 05:27:37;;;;;;;2.63;2.43;;;5.70;99.90;;;;;;5078313;28;20468;-83
2023/12/14 05:30:05;;;;;;;1.73;1.63;;;5.70;99.90;;;;;;5079642;28;20969;-84
2023/12/14 05:32:33;;;;;;;1.77;1.23;;;5.70;99.90;;;;;;5075265;28;20490;-83
2023/12/14 05:35:00;;;;;;;2.10;1.90;;;5.70;99.90;;;;;;5070214;28;20495;-84
2023/12/14 05:37:27;;;;;;;2.27;2.10;;;5.70;99.90;;;;;;5077545;28;20463;-83
2023/12/14 05:39:54;;;;;;;2.33;2.10;;;5.70;99.90;;;;;;5072591;28;20525;-83
2023/12/14 05:42:21;;;;;;;1.50;1.27;;;5.70;99.90;;;;;;5078201;28;20468;-83
2023/12/14 05:44:48;;;;;;;2.20;2.00;;;5.70;99.90;;;;;;5071498;28;20460;-84
2023/12/14 05:47:15;;;;;;;2.33;1.80;;;5.70;99.90;;;;;;5076905;28;20520;-83
2023/12/14 05:49:44;;;;;;;2.80;2.07;;;5.70;99.90;;;;;;5072215;28;20471;-83
2023/12/14 05:52:11;;;;;;;3.00;2.40;;;5.70;99.90;;;;;;5075647;28;20528;-83
2023/12/14 05:54:39;;;;;;;2.90;2.03;;;5.70;99.90;;;;;;5068957;28;20501;-83
2023/12/14 05:57:06;;;;;;;2.27;2.07;;;5.70;99.90;;;;;;5079789;28;20490;-84
2023/12/14 05:59:33;;;;;;;2.23;1.93;;;5.70;99.90;;;;;;5068664;28;20462;-83
2023/12/14 06:02:00;;;;;;;3.10;1.83;;;5.70;99.90;;;;;;5071597;28;20455;-83
2023/12/14 06:04:28;;;;;;;1.30;1.20;;;5.70;99.90;;;;;;5073524;28;20460;-83
2023/12/14 06:06:56;;;;;;;2.67;2.40;;;5.70;99.90;;;;;;5079857;28;21101;-83
2023/12/14 06:09:29;;;;;;;1.97;1.70;;;5.70;99.90;;;;;;5078144;28;20489;-83
2023/12/14 06:11:56;;;;;;;1.43;1.30;;;5.60;99.90;;;;;;5078700;28;21026;-83
2023/12/14 06:14:23;;;;;;;1.10;1.00;;;5.70;99.90;;;;;;5074399;28;20861;-83
2023/12/14 06:16:50;;;;;;;2.50;2.00;;;5.70;99.90;;;;;;5067300;28;20955;-83
2023/12/14 06:19:17;;;;;;;1.13;1.00;;;5.70;99.90;;;;;;5081197;28;20441;-83
2023/12/14 06:21:44;;;;;;;2.03;1.33;;;5.60;99.90;;;;;;5076611;28;20516;-84
2023/12/14 06:24:12;;;;;;;1.73;1.63;;;5.70;99.90;;;;;;5070116;28;20461;-84
2023/12/14 06:26:42;;;;;;;2.13;1.57;;;5.70;99.90;;;;;;5067771;28;20463;-84
2023/12/14 06:29:09;;;;;;;1.93;1.30;;;5.60;99.90;;;;;;5065122;28;20964;-84
2023/12/14 06:31:36;;;;;;;1.30;1.00;;;5.70;99.90;;;;;;5062338;28;20467;-83
2023/12/14 06:34:04;;;;;;;2.17;2.03;;;5.70;99.90;;;;;;5063776;28;20922;-83
2023/12/14 06:36:31;;;;;;;2.67;2.07;;;5.70;99.90;;;;;;5066881;28;20553;-84
2023/12/14 06:38:58;;;;;;;2.13;2.03;;;5.70;99.90;;;;;;5070672;28;20631;-84
2023/12/14 06:41:27;;;;;;;2.50;1.67;;;5.60;99.90;;;;;;5069584;28;20471;-82
2023/12/14 06:43:56;;;;;;;1.37;1.27;;;5.60;99.90;;;;;;5067321;28;20472;-82
2023/12/14 06:46:23;;;;;;;2.20;2.00;;;5.60;99.90;;;;;;5072386;28;20464;-82
2023/12/14 06:48:50;;;;;;;1.67;1.57;;;5.60;99.90;;;;;;5064177;28;20912;-82
2023/12/14 06:51:17;;;;;;;11.53;2.50;;;5.60;99.90;;;;;;5072347;28;20508;-83
2023/12/14 06:53:45;;;;;;;2.33;1.97;;;5.60;99.90;;;;;;5069205;28;20541;-82
2023/12/14 06:56:12;;;;;;;1.80;1.70;;;5.60;99.90;;;;;;5066038;28;20519;-82
2023/12/14 06:58:42;;;;;;;3.30;2.63;;;5.70;99.90;;;;;;5068425;28;20459;-82
2023/12/14 07:01:12;;;;;;;2.83;2.17;;;5.60;99.90;;;;;;5068318;28;20541;-82
2023/12/14 07:03:41;;;;;;;3.40;2.10;;;5.60;99.90;;;;;;5072166;28;20530;-82
2023/12/14 07:06:08;;;;;;;3.17;2.80;;;5.60;99.90;;;;;;5073306;28;20505;-82
2023/12/14 07:08:35;;;;;;;2.30;2.10;;;5.70;99.90;;;;;;5072598;28;20556;-82
2023/12/14 07:11:02;;;;;;;3.20;2.67;;;5.60;99.90;;;;;;5069392;28;20468;-83
2023/12/14 07:13:29;;;;;;;2.97;2.70;;;5.60;99.90;;;;;;5081787;28;20539;-82
2023/12/14 07:15:57;;;;;;;3.20;2.90;;;5.60;99.90;;;;;;5071738;28;20463;-82
2023/12/14 07:18:24;;;;;;;2.50;2.30;;;5.60;99.90;;;;;;5080050;28;20459;-82
2023/12/14 07:20:51;;;;;;;3.30;3.00;;;5.60;99.90;;;;;;5078275;28;20530;-82
2023/12/14 07:23:18;;;;;;;2.60;2.37;;;5.60;99.90;;;;;;5080340;28;20529;-83
2023/12/14 07:25:45;;;;;;;4.17;2.77;;;5.60;99.90;;;;;;5064545;28;20860;-83
2023/12/14 07:28:12;;;;;;;3.53;2.50;;;5.60;99.90;;;;;;5074805;28;20478;-82
2023/12/14 07:30:39;;;;;;;3.57;3.10;;;5.60;99.90;;;;;;5064840;28;20859;-83
2023/12/14 07:33:08;;;;;;;3.03;2.50;;;5.60;99.90;;;;;;5063390;28;20546;-83
2023/12/14 07:35:35;;;;;;;3.50;2.17;;;5.60;99.90;;;;;;5076574;28;20915;-83
2023/12/14 07:38:02;;;;;;;4.20;3.20;;;5.60;99.90;;;;;;5080328;28;20471;-83
2023/12/14 07:40:29;;;;;;;3.80;3.50;;;5.60;99.90;;;;;;5086562;28;20473;-83
2023/12/14 07:42:56;;;;;;;3.17;2.90;;;5.60;99.90;;;;;;5083600;28;20455;-83
2023/12/14 07:45:23;;;;;;;4.30;3.10;;;5.60;99.90;;;;;;5082894;28;20531;-84
2023/12/14 07:47:49;;;;;;;3.90;3.53;;;5.60;99.90;;;;;;5084409;28;20512;-83
2023/12/14 07:50:19;;;;;;;2.93;2.60;;;5.60;99.90;;;;;;5076362;28;20532;-83
2023/12/14 07:52:46;;;;;;;4.50;3.73;;;5.60;99.90;;;;;;5073102;28;20483;-83
2023/12/14 07:55:13;;;;;;;3.73;3.20;;;5.60;99.90;;;;;;5081106;28;20891;-83
2023/12/14 07:57:40;;;;;;;3.77;3.47;;;5.70;99.90;;;;;;5078002;28;20923;-83
2023/12/14 08:00:10;;;;;;;4.30;3.90;;;5.60;99.90;;;;;;5077380;28;20501;-82
2023/12/14 08:02:37;;;;;;;3.43;3.23;;;5.70;99.90;;;;;;5067113;28;20456;-82
2023/12/14 08:05:04;;;;;;;3.70;3.17;;;5.60;99.90;;;;;;5072614;28;20451;-82
2023/12/14 08:07:33;;;;;;;16.57;9.83;;;5.70;99.90;;;;;;5082183;28;20529;-82
2023/12/14 08:10:00;;;;;;;4.17;3.87;;;5.70;99.90;;;;;;5069224;28;20915;-83
2023/12/14 08:12:28;;;;;;;4.50;4.07;;;5.70;99.90;;;;;;5078401;28;20490;-83
2023/12/14 08:14:55;;;;;;;5.73;3.27;;;5.70;99.90;;;;;;5080254;28;20463;-82
2023/12/14 08:17:22;;;;;;;4.77;3.37;;;5.70;99.90;;;;;;5082221;28;20446;-82
2023/12/14 08:19:49;;;;;;;3.03;2.73;;;5.70;99.90;;;;;;5070139;28;20529;-82
2023/12/14 08:22:16;;;;;;;6.13;4.97;;;5.70;99.90;;;;;;5077215;28;20447;-83
2023/12/14 08:24:44;;;;;;;4.70;3.73;;;5.70;99.90;;;;;;5076339;28;20842;-82
2023/12/14 08:27:11;;;;;;;1.77;1.67;;;5.70;99.90;;;;;;5075143;28;20447;-82
2023/12/14 08:29:38;;;;;;;2.47;2.27;;;5.70;99.90;;;;;;5074961;28;20979;-82
2023/12/14 08:32:06;;;;;;;3.00;2.60;;;5.70;99.90;;;;;;5078902;28;20589;-82
2023/12/14 08:34:33;;;;;;;2.13;1.43;;;5.70;99.90;;;;;;5081176;28;20790;-82
2023/12/14 08:37:02;;;;;;;9.53;4.80;;;5.60;99.90;;;;;;5068486;28;20980;-82
2023/12/14 08:39:29;;;;;;;4.40;4.00;;;5.70;99.90;;;;;;5073706;28;20510;-82
2023/12/14 08:41:57;;;;;;;4.23;3.90;;;5.60;99.90;;;;;;5081458;28;20496;-82
2023/12/14 08:44:24;;;;;;;5.20;3.50;;;5.60;99.90;;;;;;5064981;28;21001;-83
2023/12/14 08:46:51;;;;;;;7.83;4.70;;;5.60;99.90;;;;;;5079680;28;21038;-82
2023/12/14 08:49:18;;;;;;;4.30;3.93;;;5.60;99.90;;;;;;5067778;28;21119;-82
2023/12/14 08:51:46;;;;;;;10.03;7.80;;;5.60;99.90;;;;;;5069639;28;20899;-82
2023/12/14 08:54:13;;;;;;;5.60;4.37;;;5.60;99.90;;;;;;5063065;28;20522;-82
2023/12/14 08:56:40;;;;;;;4.00;3.40;;;5.70;99.90;;;;;;5074639;28;20885;-82
2023/12/14 08:59:09;;;;;;;5.77;3.57;;;5.70;99.90;;;;;;5080786;28;20525;-83
2023/12/14 09:01:35;;;;;;;4.27;3.87;;;5.70;99.90;;;;;;5078040;28;20454;-82
2023/12/14 09:04:03;;;;;;;6.37;3.80;;;5.70;99.90;;;;;;5081337;28;20456;-82
2023/12/14 09:06:30;;;;;;;3.83;3.37;;;5.70;99.90;;;;;;5075634;28;21142;-82
2023/12/14 09:08:57;;;;;;;1.60;1.50;;;5.60;99.90;;;;;;5081121;28;20462;-82
2023/12/14 09:11:24;;;;;;;3.20;1.70;;;5.60;99.90;;;;;;5083312;28;20500;-82
2023/12/14 09:13:51;;;;;;;1.77;1.50;;;5.60;99.90;;;;;;5083394;28;20554;-82
2023/12/14 09:16:20;;;;;;;0.87;0.83;;;5.60;99.90;;;;;;5081092;28;20907;-82
2023/12/14 09:18:48;;;;;;;1.80;1.03;;;5.60;99.90;;;;;;5079533;28;20978;-82
2023/12/14 09:21:15;;;;;;;1.17;0.80;;;5.60;99.90;;;;;;5077786;28;20511;-82
2023/12/14 09:23:42;;;;;;;1.10;0.80;;;5.60;99.90;;;;;;5076280;28;20487;-82
2023/12/14 09:26:10;;;;;;;2.80;2.50;;;5.60;99.90;;;;;;5072712;28;20448;-82
2023/12/14 09:28:37;;;;;;;1.67;1.50;;;5.60;99.90;;;;;;5071774;28;20509;-81
2023/12/14 09:31:05;;;;;;;2.43;1.57;;;5.60;99.90;;;;;;5082143;28;20455;-82
2023/12/14 09:33:33;;;;;;;1.93;1.83;;;5.50;99.90;;;;;;5086992;28;20483;-82
2023/12/14 09:36:00;;;;;;;3.13;2.10;;;5.50;99.90;;;;;;5074042;28;20471;-82
2023/12/14 09:38:28;;;;;;;3.20;2.40;;;5.50;99.90;;;;;;5074513;28;20471;-83
2023/12/14 09:40:55;;;;;;;6.87;4.67;;;5.50;99.90;;;;;;5083805;28;20454;-82
2023/12/14 09:43:23;;;;;;;7.17;5.03;;;5.50;99.90;;;;;;5087330;28;21059;-83
2023/12/14 09:45:51;;;;;;;5.13;4.70;;;5.50;99.90;;;;;;5067054;28;20525;-83
2023/12/14 09:48:18;;;;;;;1.00;0.90;;;5.50;99.90;;;;;;5078402;28;20500;-82
2023/12/14 09:50:47;;;;;;;2.70;1.70;;;5.50;99.90;;;;;;5071930;28;20471;-82
2023/12/14 09:53:14;;;;;;;3.87;1.77;;;5.60;99.90;;;;;;5081872;28;20540;-82
2023/12/14 09:55:41;;;;;;;1.50;0.63;;;5.60;99.90;;;;;;5083964;28;21039;-82
2023/12/14 09:58:10;;;;;;;1.77;1.53;;;5.60;99.90;;;;;;5077932;28;20460;-82
2023/12/14 10:00:39;;;;;;;1.53;0.70;;;5.60;99.90;;;;;;5080113;28;20458;-83
2023/12/14 10:03:20;;;;;;;1.40;1.10;;;5.60;99.90;;;;;;5076010;28;20466;-83
2023/12/14 10:05:49;;;;;;;1.50;1.40;;;5.60;99.90;;;;;;5068337;28;20463;-83
2023/12/14 10:08:16;;;;;;;1.57;0.70;;;5.60;99.90;;;;;;5074250;28;20460;-82
2023/12/14 10:10:43;;;;;;;1.37;0.87;;;5.60;99.90;;;;;;5085322;28;20542;-83
2023/12/14 10:13:11;;;;;;;1.07;0.93;;;5.60;99.90;;;;;;5080115;28;20964;-82
2023/12/14 10:15:44;;;;;;;0.70;0.67;;;5.50;99.90;;;;;;5076784;28;20455;-82
2023/12/14 10:18:11;;;;;;;1.30;0.73;;;5.60;99.90;;;;;;5080699;28;20451;-82
2023/12/14 10:20:38;;;;;;;0.70;0.70;;;5.50;99.90;;;;;;5075465;28;20462;-83
2023/12/14 10:23:08;;;;;;;1.37;0.60;;;5.40;99.90;;;;;;5076564;28;20504;-84
2023/12/14 10:25:36;;;;;;;1.23;0.50;;;5.40;99.90;;;;;;5076968;28;20443;-83
2023/12/14 10:28:04;;;;;;;4.57;3.07;;;5.40;99.90;;;;;;5072591;28;20463;-83
2023/12/14 10:30:31;;;;;;;3.07;2.23;;;5.30;99.90;;;;;;5068923;28;20446;-83
2023/12/14 10:32:58;;;;;;;1.23;0.90;;;5.40;99.90;;;;;;5073275;28;20514;-83
2023/12/14 10:35:25;;;;;;;1.10;0.80;;;5.30;99.90;;;;;;5072694;28;20463;-83
2023/12/14 10:37:56;;;;;;;1.70;1.60;;;5.40;99.90;;;;;;5072427;28;20942;-83
2023/12/14 10:40:25;;;;;;;1.23;1.00;;;5.40;99.90;;;;;;5066373;28;21003;-83
2023/12/14 10:42:53;;;;;;;1.40;1.30;;;5.30;99.90;;;;;;5077809;28;20447;-84
2023/12/14 10:45:22;;;;;;;2.50;2.30;;;5.30;99.90;;;;;;5065359;28;20480;-83
2023/12/14 10:47:50;;;;;;;2.10;2.00;;;5.30;99.90;;;;;;5074333;28;20455;-84
2023/12/14 10:50:19;;;;;;;2.60;2.03;;;5.30;99.90;;;;;;5080630;28;20443;-83
2023/12/14 10:52:47;;;;;;;2.87;2.20;;;5.40;99.90;;;;;;5081281;28;20509;-83
2023/12/14 10:55:22;;;;;;;3.70;2.27;;;5.40;99.90;;;;;;5084145;28;21037;-84
2023/12/14 10:57:53;;;;;;;2.70;2.50;;;5.40;99.90;;;;;;5071625;28;20496;-84
2023/12/14 11:00:20;;;;;;;2.50;2.13;;;5.50;99.90;;;;;;5064800;28;21069;-83
2023/12/14 11:02:47;;;;;;;3.73;2.63;;;5.60;99.90;;;;;;5082808;28;20451;-83
2023/12/14 11:05:19;;;;;;;5.07;3.37;;;5.60;99.90;;;;;;5075635;28;20443;-83
2023/12/14 11:07:52;;;;;;;3.17;2.90;;;5.70;99.90;;;;;;5067784;28;20500;-83
2023/12/14 11:10:24;;;;;;;4.30;2.77;;;5.80;99.90;;;;;;5080420;28;20475;-83
2023/12/14 11:12:57;;;;;;;3.97;3.33;;;5.80;99.90;;;;;;5083931;28;20451;-83
2023/12/14 11:15:25;;;;;;;3.90;3.20;;;5.90;99.90;;;;;;5076843;28;20578;-83
2023/12/14 11:18:24;;;;;;;3.43;2.70;;;6.00;99.90;;;;;;5076972;28;20537;-83
2023/12/14 11:20:55;;;;;;;6.87;4.23;;;6.00;99.90;;;;;;5069091;28;20524;-83
2023/12/14 11:23:33;;;;;;;6.67;4.77;;;6.10;99.90;;;;;;5075673;28;20484;-83
2023/12/14 11:26:03;;;;;;;8.00;6.00;;;6.10;99.90;;;;;;5064564;28;21064;-83
2023/12/14 11:28:32;;;;;;;6.13;4.00;;;6.20;99.90;;;;;;5068308;28;20450;-83
2023/12/14 11:30:59;;;;;;;6.93;5.60;;;6.20;99.90;;;;;;5082056;28;20439;-83
2023/12/14 11:33:28;;;;;;;8.60;7.60;;;6.20;99.90;;;;;;5083193;28;20537;-83
2023/12/14 11:35:56;;;;;;;10.50;6.33;;;6.20;99.90;;;;;;5073477;28;20803;-83
2023/12/14 11:38:25;;;;;;;14.83;7.37;;;6.30;99.90;;;;;;5073620;28;20537;-83
2023/12/14 11:40:52;;;;;;;9.90;8.17;;;6.30;99.90;;;;;;5080490;28;20466;-83
2023/12/14 11:43:21;;;;;;;8.87;7.97;;;6.40;99.90;;;;;;5069123;28;20444;-83
2023/12/14 11:45:49;;;;;;;7.50;5.97;;;6.60;99.90;;;;;;5078801;28;20463;-83
2023/12/14 11:48:16;;;;;;;9.30;7.73;;;6.60;99.90;;;;;;5076748;28;21201;-83
2023/12/14 11:50:45;;;;;;;8.60;7.20;;;6.60;99.90;;;;;;5070606;28;20458;-82
2023/12/14 11:53:12;;;;;;;10.47;8.50;;;6.70;99.90;;;;;;5080112;28;20471;-82
2023/12/14 11:55:41;;;;;;;9.27;6.80;;;6.60;99.90;;;;;;5067060;28;20593;-82
2023/12/14 11:58:09;;;;;;;8.80;7.00;;;6.60;99.90;;;;;;5077900;28;20450;-82
2023/12/14 12:00:39;;;;;;;9.03;6.97;;;6.60;99.90;;;;;;5068726;28;21165;-85
2023/12/14 12:03:12;;;;;;;9.90;6.53;;;6.70;99.90;;;;;;5072903;28;20510;-84
2023/12/14 12:05:40;;;;;;;10.20;8.40;;;6.70;99.90;;;;;;5065062;28;20562;-84
2023/12/14 12:08:08;;;;;;;16.37;7.93;;;6.80;99.90;;;;;;5072756;28;20474;-84
2023/12/14 12:10:35;;;;;;;9.57;7.20;;;6.90;99.90;;;;;;5065873;28;20448;-84
2023/12/14 12:13:04;;;;;;;10.33;7.83;;;6.80;99.90;;;;;;5072708;28;20464;-82
2023/12/14 12:15:32;;;;;;;10.50;8.30;;;6.80;99.90;;;;;;5072357;28;20486;-82
2023/12/14 12:17:59;;;;;;;10.30;7.97;;;6.70;99.90;;;;;;5063045;28;20445;-82
2023/12/14 12:20:28;;;;;;;10.03;8.10;;;6.70;99.90;;;;;;5064486;28;20472;-82
2023/12/14 12:22:55;;;;;;;8.53;7.27;;;6.70;99.90;;;;;;5075028;28;20907;-82
2023/12/14 12:25:22;;;;;;;8.60;6.50;;;6.60;99.90;;;;;;5067011;28;20447;-82
2023/12/14 12:27:49;;;;;;;15.40;9.13;;;6.60;99.90;;;;;;5069842;28;20537;-83
2023/12/14 12:30:16;;;;;;;13.20;8.87;;;6.50;99.90;;;;;;5063615;28;20517;-82
2023/12/14 12:32:44;;;;;;;9.77;7.63;;;6.50;99.90;;;;;;5078235;28;20472;-82
2023/12/14 12:35:11;;;;;;;6.23;5.10;;;6.50;99.90;;;;;;5068512;28;20520;-82
2023/12/14 12:37:40;;;;;;;8.07;5.67;;;6.40;99.90;;;;;;5074151;28;20459;-83
2023/12/14 12:40:08;;;;;;;8.63;5.27;;;6.40;99.90;;;;;;5068667;28;20459;-83
2023/12/14 12:42:35;;;;;;;10.63;6.57;;;6.40;99.90;;;;;;5072654;28;20502;-83
2023/12/14 12:45:02;;;;;;;6.67;5.63;;;6.30;99.90;;;;;;5066039;28;20464;-82
2023/12/14 12:47:29;;;;;;;6.90;5.50;;;6.30;99.90;;;;;;5079011;28;20459;-82
2023/12/14 12:49:57;;;;;;;5.03;4.53;;;6.30;99.90;;;;;;5069644;28;20502;-82
2023/12/14 12:52:24;;;;;;;8.30;6.30;;;6.30;99.90;;;;;;5079068;28;20467;-82
2023/12/14 12:54:52;;;;;;;6.20;5.17;;;6.30;99.90;;;;;;5073042;28;20487;-82
2023/12/14 12:57:19;;;;;;;14.20;11.00;;;6.30;99.90;;;;;;5069533;28;20452;-82